Sunday, February 17, 2019, 3:25 PM EST
Back to Local

KBVY, Beverly Municipal Airport

Location: Danvers, MA, United States Lat: 42.583
Local Time: 3:25 PM EST (20:25 GMT) Lon: -70.917
Time Zone: US/Eastern Elev: 108 ft

Show me the last for .
Show Coded

Time T Td Feel RH Dir Speed Gust Alt SLP Vis Weather Sky Remarks
2019-02-17 14:53 31 14 22 48 140° 12 - 30.10 30.09 10 CLR None
2019-02-17 13:53 33 5 - 29 - Calm - 30.07 30.06 10 CLR Pressure rising rapidly
2019-02-17 12:53 31 5 - 32 - Calm - 30.07 30.06 10 CLR 6-hr Min Temp (1pm): 21.0°F
6-hr Max Temp (1pm): 33.1°F
2019-02-17 11:53 31 6 24 34 280° 7 - 30.10 30.09 10 CLR None
2019-02-17 10:53 29 6 20 37 330° 10 - 30.13 30.12 10 CLR None
2019-02-17 09:53 27 6 16 40 320° 14 - 30.13 30.12 10 CLR None
2019-02-17 08:53 25 6 14 43 300° 13 - 30.12 30.11 10 CLR None
2019-02-17 07:53 23 8 13 52 340° 9 - 30.10 30.09 10 CLR None
2019-02-17 06:53 21 8 10 56 320° 10 - 30.08 30.08 10 CLR 6-hr Min Temp (7am): 19.9°F
6-hr Max Temp (7am): 26.1°F
2019-02-17 05:53 21 8 10 56 320° 10 - 30.06 30.05 10 CLR None
2019-02-17 04:53 21 9 11 58 330° 8 - 30.03 30.03 10 CLR None
2019-02-17 03:53 23 9 12 54 320° 10 - 30.03 30.02 10 CLR None
2019-02-17 02:53 24 9 14 51 320° 9 - 30.03 30.02 10 CLR None
2019-02-17 01:53 24 9 9 51 320° 16 23 30.01 30.00 10 CLR None
2019-02-17 00:53 26 10 13 50 330° 14 18 30.00 29.99 10 CLR 6-hr Min Temp (1am): 26.1°F
6-hr Max Temp (1am): 35.1°F
2019-02-16 23:53 27 11 19 50 330° 7 - 29.98 29.97 10 CLR 24-hr Min Temp (12am): 27.0°F
24-hr Max Temp (12am): 46.0°F
2019-02-16 22:53 29 12 19 48 330° 13 - 29.95 29.94 10 CLR None
2019-02-16 21:53 32 15 19 49 310° 17 24 29.93 29.92 10 CLR None
2019-02-16 20:53 33 16 26 48 300° 8 - 29.91 29.90 10 CLR None
2019-02-16 19:53 34 17 28 49 310° 7 - 29.89 29.88 10 CLR None
2019-02-16 18:53 35 18 29 49 300° 7 - 29.87 29.86 10 CLR 6-hr Min Temp (7pm): 34.0°F
6-hr Max Temp (7pm): 42.1°F
2019-02-16 17:53 35 19 28 51 320° 9 - 29.84 29.83 10 CLR None
2019-02-16 16:53 38 18 30 43 320° 13 - 29.80 29.79 10 CLR None
2019-02-16 15:53 40 18 31 40 310° 12 18 29.78 29.76 10 CLR None

Support USWX by starting your Amazon purchase here.